sensor_id;sensor_type;location;lat;lon;timestamp;P1;durP1;ratioP1;P2;durP2;ratioP2
17967;SDS011;9109;48.050;11.696;2023-03-21T05:02:12;5.90;;;2.60;;
17967;SDS011;9109;48.050;11.696;2023-03-21T05:05:14;5.37;;;3.10;;
17967;SDS011;9109;48.050;11.696;2023-03-21T05:08:16;7.00;;;2.80;;
17967;SDS011;9109;48.050;11.696;2023-03-21T05:11:18;5.77;;;2.63;;
17967;SDS011;9109;48.050;11.696;2023-03-21T05:14:21;4.37;;;2.60;;
17967;SDS011;9109;48.050;11.696;2023-03-21T05:17:27;6.33;;;2.80;;
17967;SDS011;9109;48.050;11.696;2023-03-21T05:20:29;6.47;;;2.37;;
17967;SDS011;9109;48.050;11.696;2023-03-21T05:23:31;3.63;;;2.30;;
17967;SDS011;9109;48.050;11.696;2023-03-21T05:26:37;3.33;;;2.10;;
17967;SDS011;9109;48.050;11.696;2023-03-21T05:29:39;4.67;;;1.83;;
17967;SDS011;9109;48.050;11.696;2023-03-21T05:32:43;2.63;;;1.80;;
17967;SDS011;9109;48.050;11.696;2023-03-21T05:35:45;5.57;;;2.10;;
17967;SDS011;9109;48.050;11.696;2023-03-21T05:38:49;2.90;;;1.93;;
17967;SDS011;9109;48.050;11.696;2023-03-21T05:41:51;4.57;;;2.10;;
17967;SDS011;9109;48.050;11.696;2023-03-21T05:44:53;15.67;;;2.80;;
17967;SDS011;9109;48.050;11.696;2023-03-21T05:47:57;5.53;;;2.73;;
17967;SDS011;9109;48.050;11.696;2023-03-21T05:50:58;4.00;;;2.50;;
17967;SDS011;9109;48.050;11.696;2023-03-21T05:54:01;4.50;;;2.47;;
17967;SDS011;9109;48.050;11.696;2023-03-21T05:57:03;5.50;;;2.30;;
17967;SDS011;9109;48.050;11.696;2023-03-21T06:00:06;6.00;;;2.57;;
17967;SDS011;9109;48.050;11.696;2023-03-21T06:03:10;10.40;;;2.70;;
17967;SDS011;9109;48.050;11.696;2023-03-21T06:06:12;6.87;;;2.60;;
17967;SDS011;9109;48.050;11.696;2023-03-21T06:09:14;12.10;;;2.60;;
17967;SDS011;9109;48.050;11.696;2023-03-21T06:12:16;7.77;;;2.80;;
17967;SDS011;9109;48.050;11.696;2023-03-21T06:15:18;8.33;;;2.67;;
17967;SDS011;9109;48.050;11.696;2023-03-21T06:18:22;4.17;;;2.70;;
17967;SDS011;9109;48.050;11.696;2023-03-21T06:21:23;3.60;;;2.57;;
17967;SDS011;9109;48.050;11.696;2023-03-21T06:24:25;5.27;;;2.57;;
17967;SDS011;9109;48.050;11.696;2023-03-21T06:27:27;10.17;;;2.47;;
17967;SDS011;9109;48.050;11.696;2023-03-21T06:30:29;5.70;;;2.47;;
17967;SDS011;9109;48.050;11.696;2023-03-21T06:33:32;9.37;;;2.93;;
17967;SDS011;9109;48.050;11.696;2023-03-21T06:36:34;5.60;;;2.87;;
17967;SDS011;9109;48.050;11.696;2023-03-21T06:39:37;5.13;;;2.57;;
17967;SDS011;9109;48.050;11.696;2023-03-21T06:42:39;5.70;;;2.67;;
17967;SDS011;9109;48.050;11.696;2023-03-21T06:45:41;9.23;;;2.50;;
17967;SDS011;9109;48.050;11.696;2023-03-21T06:48:44;4.83;;;2.83;;
17967;SDS011;9109;48.050;11.696;2023-03-21T06:51:46;4.97;;;2.93;;
17967;SDS011;9109;48.050;11.696;2023-03-21T06:54:48;12.00;;;2.70;;
17967;SDS011;9109;48.050;11.696;2023-03-21T06:57:51;7.00;;;2.53;;
17967;SDS011;9109;48.050;11.696;2023-03-21T07:00:53;8.77;;;3.67;;
17967;SDS011;9109;48.050;11.696;2023-03-21T07:03:56;3.83;;;2.80;;
17967;SDS011;9109;48.050;11.696;2023-03-21T07:06:58;7.83;;;3.10;;
17967;SDS011;9109;48.050;11.696;2023-03-21T07:10:00;6.77;;;3.20;;
17967;SDS011;9109;48.050;11.696;2023-03-21T07:13:02;4.70;;;3.00;;
17967;SDS011;9109;48.050;11.696;2023-03-21T07:16:04;7.83;;;2.67;;
17967;SDS011;9109;48.050;11.696;2023-03-21T07:19:08;8.43;;;2.83;;
17967;SDS011;9109;48.050;11.696;2023-03-21T07:22:10;8.47;;;3.20;;
17967;SDS011;9109;48.050;11.696;2023-03-21T07:25:12;6.43;;;3.00;;
17967;SDS011;9109;48.050;11.696;2023-03-21T07:28:16;12.63;;;3.40;;
17967;SDS011;9109;48.050;11.696;2023-03-21T07:31:18;8.53;;;3.40;;
17967;SDS011;9109;48.050;11.696;2023-03-21T07:34:21;8.00;;;3.07;;
17967;SDS011;9109;48.050;11.696;2023-03-21T07:37:23;5.53;;;3.10;;
17967;SDS011;9109;48.050;11.696;2023-03-21T07:40:25;6.40;;;3.30;;
17967;SDS011;9109;48.050;11.696;2023-03-21T07:43:27;6.77;;;3.37;;
17967;SDS011;9109;48.050;11.696;2023-03-21T07:46:29;10.97;;;4.00;;
17967;SDS011;9109;48.050;11.696;2023-03-21T07:49:32;8.20;;;3.30;;
17967;SDS011;9109;48.050;11.696;2023-03-21T07:52:34;9.73;;;3.30;;
17967;SDS011;9109;48.050;11.696;2023-03-21T07:55:36;8.33;;;4.23;;
17967;SDS011;9109;48.050;11.696;2023-03-21T07:58:38;7.43;;;2.73;;
17967;SDS011;9109;48.050;11.696;2023-03-21T08:01:40;5.33;;;3.23;;
17967;SDS011;9109;48.050;11.696;2023-03-21T08:04:43;5.80;;;3.20;;
17967;SDS011;9109;48.050;11.696;2023-03-21T08:07:45;9.23;;;3.60;;
17967;SDS011;9109;48.050;11.696;2023-03-21T08:10:47;9.20;;;3.87;;
17967;SDS011;9109;48.050;11.696;2023-03-21T08:13:49;9.20;;;3.87;;
17967;SDS011;9109;48.050;11.696;2023-03-21T08:16:52;7.87;;;3.60;;
17967;SDS011;9109;48.050;11.696;2023-03-21T08:19:56;10.87;;;4.07;;
17967;SDS011;9109;48.050;11.696;2023-03-21T08:22:58;9.20;;;4.07;;
17967;SDS011;9109;48.050;11.696;2023-03-21T08:26:00;5.57;;;3.30;;
17967;SDS011;9109;48.050;11.696;2023-03-21T08:29:02;8.40;;;4.40;;
17967;SDS011;9109;48.050;11.696;2023-03-21T08:32:04;8.90;;;3.80;;
17967;SDS011;9109;48.050;11.696;2023-03-21T08:35:09;10.33;;;3.97;;
17967;SDS011;9109;48.050;11.696;2023-03-21T08:38:13;7.33;;;3.90;;
17967;SDS011;9109;48.050;11.696;2023-03-21T08:41:15;7.47;;;3.83;;
17967;SDS011;9109;48.050;11.696;2023-03-21T08:44:18;7.40;;;3.87;;
17967;SDS011;9109;48.050;11.696;2023-03-21T08:47:21;8.20;;;4.20;;
17967;SDS011;9109;48.050;11.696;2023-03-21T08:50:26;8.53;;;4.27;;
17967;SDS011;9109;48.050;11.696;2023-03-21T08:53:30;8.90;;;3.83;;
17967;SDS011;9109;48.050;11.696;2023-03-21T08:56:32;5.97;;;3.97;;
17967;SDS011;9109;48.050;11.696;2023-03-21T08:59:34;8.50;;;4.10;;
17967;SDS011;9109;48.050;11.696;2023-03-21T09:02:36;6.30;;;3.83;;
17967;SDS011;9109;48.050;11.696;2023-03-21T09:05:40;8.00;;;4.27;;
17967;SDS011;9109;48.050;11.696;2023-03-21T09:08:44;9.07;;;4.10;;
17967;SDS011;9109;48.050;11.696;2023-03-21T09:11:47;6.67;;;4.20;;
17967;SDS011;9109;48.050;11.696;2023-03-21T09:14:49;7.63;;;3.97;;
17967;SDS011;9109;48.050;11.696;2023-03-21T09:17:52;8.50;;;4.50;;
17967;SDS011;9109;48.050;11.696;2023-03-21T09:20:58;7.63;;;3.87;;
17967;SDS011;9109;48.050;11.696;2023-03-21T09:24:01;9.00;;;4.13;;
17967;SDS011;9109;48.050;11.696;2023-03-21T09:27:05;6.70;;;4.17;;
17967;SDS011;9109;48.050;11.696;2023-03-21T09:30:08;11.20;;;3.70;;
17967;SDS011;9109;48.050;11.696;2023-03-21T09:33:10;10.20;;;3.60;;
17967;SDS011;9109;48.050;11.696;2023-03-21T09:36:19;15.97;;;3.53;;
17967;SDS011;9109;48.050;11.696;2023-03-21T09:39:23;15.13;;;3.80;;
17967;SDS011;9109;48.050;11.696;2023-03-21T09:42:29;5.20;;;3.03;;
17967;SDS011;9109;48.050;11.696;2023-03-21T09:45:39;13.00;;;4.20;;
17967;SDS011;9109;48.050;11.696;2023-03-21T09:48:48;5.27;;;3.10;;
17967;SDS011;9109;48.050;11.696;2023-03-21T09:51:59;10.77;;;4.33;;
17967;SDS011;9109;48.050;11.696;2023-03-21T09:55:04;8.00;;;2.92;;
17967;SDS011;9109;48.050;11.696;2023-03-21T09:58:20;9.23;;;3.37;;
17967;SDS011;9109;48.050;11.696;2023-03-21T10:01:27;5.97;;;3.00;;
17967;SDS011;9109;48.050;11.696;2023-03-21T10:04:34;4.97;;;3.47;;
17967;SDS011;9109;48.050;11.696;2023-03-21T10:07:39;6.93;;;3.50;;
17967;SDS011;9109;48.050;11.696;2023-03-21T10:10:44;5.13;;;3.10;;
17967;SDS011;9109;48.050;11.696;2023-03-21T10:13:50;6.40;;;3.57;;
17967;SDS011;9109;48.050;11.696;2023-03-21T10:16:56;6.90;;;3.23;;
17967;SDS011;9109;48.050;11.696;2023-03-21T10:20:00;5.33;;;2.83;;
17967;SDS011;9109;48.050;11.696;2023-03-21T10:23:14;11.27;;;4.00;;
17967;SDS011;9109;48.050;11.696;2023-03-21T10:26:17;7.03;;;3.20;;
17967;SDS011;9109;48.050;11.696;2023-03-21T10:29:21;7.53;;;3.63;;
17967;SDS011;9109;48.050;11.696;2023-03-21T10:32:25;6.87;;;3.37;;
17967;SDS011;9109;48.050;11.696;2023-03-21T10:35:27;8.87;;;3.50;;
17967;SDS011;9109;48.050;11.696;2023-03-21T10:38:33;7.97;;;3.17;;
17967;SDS011;9109;48.050;11.696;2023-03-21T10:41:39;7.83;;;3.40;;
17967;SDS011;9109;48.050;11.696;2023-03-21T10:44:41;9.87;;;3.20;;
17967;SDS011;9109;48.050;11.696;2023-03-21T10:47:47;4.88;;;3.00;;
17967;SDS011;9109;48.050;11.696;2023-03-21T10:50:51;10.43;;;3.50;;
17967;SDS011;9109;48.050;11.696;2023-03-21T10:53:57;7.07;;;2.77;;
17967;SDS011;9109;48.050;11.696;2023-03-21T10:57:02;7.53;;;3.40;;
17967;SDS011;9109;48.050;11.696;2023-03-21T11:00:07;7.78;;;3.17;;
17967;SDS011;9109;48.050;11.696;2023-03-21T11:03:19;4.47;;;3.00;;
17967;SDS011;9109;48.050;11.696;2023-03-21T11:06:25;5.53;;;3.17;;
17967;SDS011;9109;48.050;11.696;2023-03-21T11:09:43;5.35;;;3.50;;
17967;SDS011;9109;48.050;11.696;2023-03-21T11:12:47;7.50;;;3.10;;
17967;SDS011;9109;48.050;11.696;2023-03-21T11:15:51;10.95;;;3.60;;
17967;SDS011;9109;48.050;11.696;2023-03-21T11:18:56;6.15;;;3.03;;
17967;SDS011;9109;48.050;11.696;2023-03-21T11:22:03;4.80;;;2.60;;
17967;SDS011;9109;48.050;11.696;2023-03-21T11:25:09;6.50;;;2.47;;
17967;SDS011;9109;48.050;11.696;2023-03-21T11:28:20;5.93;;;2.60;;
17967;SDS011;9109;48.050;11.696;2023-03-21T11:31:35;8.57;;;2.78;;
17967;SDS011;9109;48.050;11.696;2023-03-21T11:34:41;5.22;;;2.88;;
17967;SDS011;9109;48.050;11.696;2023-03-21T11:37:49;4.35;;;2.75;;
17967;SDS011;9109;48.050;11.696;2023-03-21T11:40:56;5.53;;;2.88;;
17967;SDS011;9109;48.050;11.696;2023-03-21T11:43:59;5.57;;;2.47;;
17967;SDS011;9109;48.050;11.696;2023-03-21T11:47:02;3.45;;;2.53;;
17967;SDS011;9109;48.050;11.696;2023-03-21T11:50:12;5.97;;;2.40;;
17967;SDS011;9109;48.050;11.696;2023-03-21T11:53:23;4.72;;;2.67;;
17967;SDS011;9109;48.050;11.696;2023-03-21T11:56:37;5.37;;;2.80;;
17967;SDS011;9109;48.050;11.696;2023-03-21T11:59:44;3.78;;;2.60;;
17967;SDS011;9109;48.050;11.696;2023-03-21T12:03:00;4.95;;;2.70;;
17967;SDS011;9109;48.050;11.696;2023-03-21T12:06:23;5.37;;;2.33;;
17967;SDS011;9109;48.050;11.696;2023-03-21T12:09:33;4.30;;;2.63;;
17967;SDS011;9109;48.050;11.696;2023-03-21T12:12:42;3.97;;;2.55;;
17967;SDS011;9109;48.050;11.696;2023-03-21T12:15:53;5.45;;;2.70;;
17967;SDS011;9109;48.050;11.696;2023-03-21T12:19:10;4.68;;;2.75;;
17967;SDS011;9109;48.050;11.696;2023-03-21T12:22:22;3.85;;;2.35;;
17967;SDS011;9109;48.050;11.696;2023-03-21T12:25:31;9.88;;;3.00;;
17967;SDS011;9109;48.050;11.696;2023-03-21T12:28:41;4.38;;;3.00;;
17967;SDS011;9109;48.050;11.696;2023-03-21T12:31:59;3.58;;;2.63;;
17967;SDS011;9109;48.050;11.696;2023-03-21T12:35:15;5.10;;;2.45;;
17967;SDS011;9109;48.050;11.696;2023-03-21T12:38:25;3.80;;;1.83;;
17967;SDS011;9109;48.050;11.696;2023-03-21T12:41:37;4.32;;;1.95;;
17967;SDS011;9109;48.050;11.696;2023-03-21T12:44:46;3.60;;;1.50;;
17967;SDS011;9109;48.050;11.696;2023-03-21T12:47:54;2.65;;;1.65;;
17967;SDS011;9109;48.050;11.696;2023-03-21T12:51:25;1.88;;;1.48;;
17967;SDS011;9109;48.050;11.696;2023-03-21T12:54:33;2.85;;;1.70;;
17967;SDS011;9109;48.050;11.696;2023-03-21T12:57:41;3.20;;;1.27;;
17967;SDS011;9109;48.050;11.696;2023-03-21T13:00:52;2.30;;;1.35;;
17967;SDS011;9109;48.050;11.696;2023-03-21T13:04:05;2.58;;;1.63;;
17967;SDS011;9109;48.050;11.696;2023-03-21T13:07:17;3.63;;;1.50;;
17967;SDS011;9109;48.050;11.696;2023-03-21T13:10:33;4.18;;;1.65;;
17967;SDS011;9109;48.050;11.696;2023-03-21T13:13:37;3.85;;;1.55;;
17967;SDS011;9109;48.050;11.696;2023-03-21T13:16:46;2.08;;;1.40;;
17967;SDS011;9109;48.050;11.696;2023-03-21T13:19:53;2.78;;;1.80;;
17967;SDS011;9109;48.050;11.696;2023-03-21T13:23:10;3.20;;;1.85;;
17967;SDS011;9109;48.050;11.696;2023-03-21T13:26:17;7.50;;;1.70;;
17967;SDS011;9109;48.050;11.696;2023-03-21T13:29:21;3.40;;;1.70;;
17967;SDS011;9109;48.050;11.696;2023-03-21T13:32:31;2.90;;;1.70;;
17967;SDS011;9109;48.050;11.696;2023-03-21T13:35:35;4.13;;;1.00;;
17967;SDS011;9109;48.050;11.696;2023-03-21T13:38:41;1.35;;;1.20;;
17967;SDS011;9109;48.050;11.696;2023-03-21T13:41:50;2.92;;;1.60;;
17967;SDS011;9109;48.050;11.696;2023-03-21T13:44:56;4.10;;;1.42;;
17967;SDS011;9109;48.050;11.696;2023-03-21T13:48:04;2.33;;;1.30;;
17967;SDS011;9109;48.050;11.696;2023-03-21T13:54:52;5.38;;;1.40;;
17967;SDS011;9109;48.050;11.696;2023-03-21T13:57:55;2.72;;;1.30;;
17967;SDS011;9109;48.050;11.696;2023-03-21T14:01:12;4.38;;;1.63;;
17967;SDS011;9109;48.050;11.696;2023-03-21T14:04:25;1.92;;;1.08;;
17967;SDS011;9109;48.050;11.696;2023-03-21T14:07:31;9.25;;;1.83;;
17967;SDS011;9109;48.050;11.696;2023-03-21T14:10:36;11.13;;;1.00;;
17967;SDS011;9109;48.050;11.696;2023-03-21T14:13:40;1.38;;;0.70;;
17967;SDS011;9109;48.050;11.696;2023-03-21T14:16:49;1.05;;;0.70;;
17967;SDS011;9109;48.050;11.696;2023-03-21T14:19:58;0.50;;;0.50;;
17967;SDS011;9109;48.050;11.696;2023-03-21T14:23:37;1.02;;;0.73;;
17967;SDS011;9109;48.050;11.696;2023-03-21T14:27:01;1.10;;;0.80;;
17967;SDS011;9109;48.050;11.696;2023-03-21T14:30:10;3.90;;;0.85;;
17967;SDS011;9109;48.050;11.696;2023-03-21T14:33:22;1.42;;;0.88;;
17967;SDS011;9109;48.050;11.696;2023-03-21T14:36:29;1.38;;;0.80;;
17967;SDS011;9109;48.050;11.696;2023-03-21T14:39:55;1.65;;;0.73;;
17967;SDS011;9109;48.050;11.696;2023-03-21T14:42:59;1.48;;;0.80;;
17967;SDS011;9109;48.050;11.696;2023-03-21T14:46:05;1.77;;;1.15;;
17967;SDS011;9109;48.050;11.696;2023-03-21T14:49:10;0.73;;;0.60;;
17967;SDS011;9109;48.050;11.696;2023-03-21T14:52:17;2.03;;;0.80;;
17967;SDS011;9109;48.050;11.696;2023-03-21T14:55:22;2.33;;;1.02;;
17967;SDS011;9109;48.050;11.696;2023-03-21T14:58:24;3.95;;;1.20;;
17967;SDS011;9109;48.050;11.696;2023-03-21T15:01:28;2.03;;;1.00;;
17967;SDS011;9109;48.050;11.696;2023-03-21T15:04:33;1.35;;;0.90;;
17967;SDS011;9109;48.050;11.696;2023-03-21T15:07:36;3.97;;;1.23;;
17967;SDS011;9109;48.050;11.696;2023-03-21T15:10:38;6.15;;;1.33;;
17967;SDS011;9109;48.050;11.696;2023-03-21T15:13:42;2.50;;;1.00;;
17967;SDS011;9109;48.050;11.696;2023-03-21T15:16:49;2.08;;;1.30;;
17967;SDS011;9109;48.050;11.696;2023-03-21T15:19:51;3.20;;;1.00;;
17967;SDS011;9109;48.050;11.696;2023-03-21T15:22:55;2.20;;;1.30;;
17967;SDS011;9109;48.050;11.696;2023-03-21T15:26:01;3.92;;;1.30;;
17967;SDS011;9109;48.050;11.696;2023-03-21T15:29:04;2.22;;;1.23;;
17967;SDS011;9109;48.050;11.696;2023-03-21T15:32:11;1.27;;;1.15;;
17967;SDS011;9109;48.050;11.696;2023-03-21T15:35:18;2.63;;;1.13;;
17967;SDS011;9109;48.050;11.696;2023-03-21T15:38:27;4.90;;;1.80;;
17967;SDS011;9109;48.050;11.696;2023-03-21T15:41:32;5.10;;;1.65;;
17967;SDS011;9109;48.050;11.696;2023-03-21T15:44:35;2.20;;;1.52;;
17967;SDS011;9109;48.050;11.696;2023-03-21T15:47:40;4.25;;;1.90;;
17967;SDS011;9109;48.050;11.696;2023-03-21T15:50:46;2.42;;;1.25;;
17967;SDS011;9109;48.050;11.696;2023-03-21T15:53:55;3.72;;;1.58;;
17967;SDS011;9109;48.050;11.696;2023-03-21T15:57:15;4.38;;;1.30;;
17967;SDS011;9109;48.050;11.696;2023-03-21T16:00:23;4.93;;;1.50;;
17967;SDS011;9109;48.050;11.696;2023-03-21T16:03:33;6.40;;;1.90;;
17967;SDS011;9109;48.050;11.696;2023-03-21T16:06:50;3.17;;;1.40;;
17967;SDS011;9109;48.050;11.696;2023-03-21T16:09:58;2.25;;;1.52;;
17967;SDS011;9109;48.050;11.696;2023-03-21T16:13:03;3.33;;;1.65;;
17967;SDS011;9109;48.050;11.696;2023-03-21T16:16:05;1.48;;;1.08;;
17967;SDS011;9109;48.050;11.696;2023-03-21T16:19:10;8.55;;;1.88;;
17967;SDS011;9109;48.050;11.696;2023-03-21T16:22:12;3.30;;;1.63;;
17967;SDS011;9109;48.050;11.696;2023-03-21T16:25:15;4.45;;;2.15;;
17967;SDS011;9109;48.050;11.696;2023-03-21T16:28:17;5.50;;;2.22;;
17967;SDS011;9109;48.050;11.696;2023-03-21T16:31:20;4.75;;;2.30;;
17967;SDS011;9109;48.050;11.696;2023-03-21T16:34:24;5.05;;;2.13;;
17967;SDS011;9109;48.050;11.696;2023-03-21T16:37:26;3.10;;;2.08;;
17967;SDS011;9109;48.050;11.696;2023-03-21T16:40:30;3.95;;;2.33;;
17967;SDS011;9109;48.050;11.696;2023-03-21T16:43:34;3.55;;;2.58;;
17967;SDS011;9109;48.050;11.696;2023-03-21T16:46:38;4.55;;;2.40;;
17967;SDS011;9109;48.050;11.696;2023-03-21T16:49:40;4.20;;;2.30;;
17967;SDS011;9109;48.050;11.696;2023-03-21T16:52:42;3.42;;;2.40;;
17967;SDS011;9109;48.050;11.696;2023-03-21T16:55:46;4.22;;;2.30;;
17967;SDS011;9109;48.050;11.696;2023-03-21T16:58:48;5.53;;;2.67;;
17967;SDS011;9109;48.050;11.696;2023-03-21T17:01:50;8.07;;;2.22;;
17967;SDS011;9109;48.050;11.696;2023-03-21T17:04:51;3.10;;;2.20;;
17967;SDS011;9109;48.050;11.696;2023-03-21T17:07:53;9.02;;;2.95;;
17967;SDS011;9109;48.050;11.696;2023-03-21T17:11:08;3.92;;;2.55;;
17967;SDS011;9109;48.050;11.696;2023-03-21T17:14:17;3.80;;;2.35;;
17967;SDS011;9109;48.050;11.696;2023-03-21T17:17:23;4.90;;;2.50;;
17967;SDS011;9109;48.050;11.696;2023-03-21T17:20:28;4.72;;;2.70;;
17967;SDS011;9109;48.050;11.696;2023-03-21T17:23:37;5.40;;;2.78;;
17967;SDS011;9109;48.050;11.696;2023-03-21T17:26:41;5.78;;;2.58;;
17967;SDS011;9109;48.050;11.696;2023-03-21T17:29:43;4.03;;;2.60;;
17967;SDS011;9109;48.050;11.696;2023-03-21T17:32:45;3.75;;;2.38;;
17967;SDS011;9109;48.050;11.696;2023-03-21T17:35:47;6.70;;;2.78;;
17967;SDS011;9109;48.050;11.696;2023-03-21T17:38:49;7.95;;;2.58;;
17967;SDS011;9109;48.050;11.696;2023-03-21T17:41:54;6.60;;;2.90;;
17967;SDS011;9109;48.050;11.696;2023-03-21T17:44:56;8.63;;;2.70;;
17967;SDS011;9109;48.050;11.696;2023-03-21T17:47:58;6.85;;;2.33;;
17967;SDS011;9109;48.050;11.696;2023-03-21T17:51:00;6.05;;;2.55;;
17967;SDS011;9109;48.050;11.696;2023-03-21T17:54:02;8.95;;;2.55;;
17967;SDS011;9109;48.050;11.696;2023-03-21T17:57:07;5.90;;;2.30;;
17967;SDS011;9109;48.050;11.696;2023-03-21T18:00:13;6.60;;;2.22;;
17967;SDS011;9109;48.050;11.696;2023-03-21T18:03:17;8.38;;;2.38;;
17967;SDS011;9109;48.050;11.696;2023-03-21T18:06:19;9.43;;;2.35;;
17967;SDS011;9109;48.050;11.696;2023-03-21T18:09:22;4.68;;;2.28;;
17967;SDS011;9109;48.050;11.696;2023-03-21T18:12:26;6.82;;;2.55;;
17967;SDS011;9109;48.050;11.696;2023-03-21T18:15:28;6.28;;;2.47;;
17967;SDS011;9109;48.050;11.696;2023-03-21T18:18:30;6.38;;;2.28;;
17967;SDS011;9109;48.050;11.696;2023-03-21T18:21:32;4.90;;;2.00;;
17967;SDS011;9109;48.050;11.696;2023-03-21T18:24:34;5.28;;;2.30;;
17967;SDS011;9109;48.050;11.696;2023-03-21T18:27:37;4.22;;;2.10;;
17967;SDS011;9109;48.050;11.696;2023-03-21T18:30:39;9.95;;;2.40;;
17967;SDS011;9109;48.050;11.696;2023-03-21T18:33:42;6.35;;;2.35;;
17967;SDS011;9109;48.050;11.696;2023-03-21T18:36:45;4.88;;;2.00;;
17967;SDS011;9109;48.050;11.696;2023-03-21T18:39:47;7.70;;;1.90;;
17967;SDS011;9109;48.050;11.696;2023-03-21T18:42:50;5.22;;;2.30;;
17967;SDS011;9109;48.050;11.696;2023-03-21T18:45:52;7.65;;;1.92;;
17967;SDS011;9109;48.050;11.696;2023-03-21T18:48:54;4.68;;;2.30;;
17967;SDS011;9109;48.050;11.696;2023-03-21T18:51:56;15.45;;;2.70;;
17967;SDS011;9109;48.050;11.696;2023-03-21T18:54:57;7.20;;;2.42;;
17967;SDS011;9109;48.050;11.696;2023-03-21T18:58:01;21.02;;;3.13;;
17967;SDS011;9109;48.050;11.696;2023-03-21T19:01:03;8.18;;;2.40;;
17967;SDS011;9109;48.050;11.696;2023-03-21T19:04:05;13.38;;;2.10;;
17967;SDS011;9109;48.050;11.696;2023-03-21T19:07:07;10.05;;;2.88;;
17967;SDS011;9109;48.050;11.696;2023-03-21T19:10:09;15.98;;;3.10;;
17967;SDS011;9109;48.050;11.696;2023-03-21T19:13:13;8.18;;;2.70;;
17967;SDS011;9109;48.050;11.696;2023-03-21T19:16:15;17.47;;;4.13;;
17967;SDS011;9109;48.050;11.696;2023-03-21T19:19:17;15.33;;;3.50;;
17967;SDS011;9109;48.050;11.696;2023-03-21T19:22:20;16.23;;;2.88;;
17967;SDS011;9109;48.050;11.696;2023-03-21T19:25:22;12.68;;;2.72;;
17967;SDS011;9109;48.050;11.696;2023-03-21T19:28:26;7.03;;;2.15;;
17967;SDS011;9109;48.050;11.696;2023-03-21T19:31:28;11.20;;;2.87;;
17967;SDS011;9109;48.050;11.696;2023-03-21T19:34:30;10.57;;;2.38;;
17967;SDS011;9109;48.050;11.696;2023-03-21T19:37:32;8.30;;;2.40;;
17967;SDS011;9109;48.050;11.696;2023-03-21T19:40:35;3.90;;;1.92;;
17967;SDS011;9109;48.050;11.696;2023-03-21T19:43:40;8.77;;;2.10;;
17967;SDS011;9109;48.050;11.696;2023-03-21T19:46:42;11.50;;;2.33;;
17967;SDS011;9109;48.050;11.696;2023-03-21T19:49:44;9.30;;;2.60;;
17967;SDS011;9109;48.050;11.696;2023-03-21T19:52:46;7.00;;;1.90;;
17967;SDS011;9109;48.050;11.696;2023-03-21T19:55:49;8.10;;;2.20;;
17967;SDS011;9109;48.050;11.696;2023-03-21T19:58:52;5.75;;;2.25;;
17967;SDS011;9109;48.050;11.696;2023-03-21T20:01:54;6.13;;;2.73;;
17967;SDS011;9109;48.050;11.696;2023-03-21T20:04:56;10.20;;;2.35;;
17967;SDS011;9109;48.050;11.696;2023-03-21T20:07:58;13.63;;;2.47;;
17967;SDS011;9109;48.050;11.696;2023-03-21T20:11:00;5.73;;;2.30;;
17967;SDS011;9109;48.050;11.696;2023-03-21T20:14:03;5.03;;;2.33;;
17967;SDS011;9109;48.050;11.696;2023-03-21T20:17:05;10.20;;;2.42;;
17967;SDS011;9109;48.050;11.696;2023-03-21T20:20:08;7.68;;;2.92;;
17967;SDS011;9109;48.050;11.696;2023-03-21T20:23:14;5.53;;;2.43;;
17967;SDS011;9109;48.050;11.696;2023-03-21T20:26:18;5.20;;;2.40;;
17967;SDS011;9109;48.050;11.696;2023-03-21T20:29:21;5.43;;;1.95;;
17967;SDS011;9109;48.050;11.696;2023-03-21T20:32:23;5.20;;;2.50;;
17967;SDS011;9109;48.050;11.696;2023-03-21T20:35:27;7.63;;;2.07;;
17967;SDS011;9109;48.050;11.696;2023-03-21T20:38:41;7.55;;;2.40;;
17967;SDS011;9109;48.050;11.696;2023-03-21T20:50:20;5.50;;;2.20;;
17967;SDS011;9109;48.050;11.696;2023-03-21T20:54:07;5.83;;;2.40;;
17967;SDS011;9109;48.050;11.696;2023-03-21T21:04:11;4.90;;;2.30;;
17967;SDS011;9109;48.050;11.696;2023-03-21T21:11:49;6.13;;;2.30;;
17967;SDS011;9109;48.050;11.696;2023-03-21T21:15:11;6.10;;;2.53;;
17967;SDS011;9109;48.050;11.696;2023-03-21T21:18:15;4.83;;;2.43;;
17967;SDS011;9109;48.050;11.696;2023-03-21T21:21:24;4.47;;;2.17;;
17967;SDS011;9109;48.050;11.696;2023-03-21T21:24:43;8.10;;;2.83;;
17967;SDS011;9109;48.050;11.696;2023-03-21T21:28:34;5.43;;;2.73;;
17967;SDS011;9109;48.050;11.696;2023-03-21T21:35:40;8.47;;;3.60;;
17967;SDS011;9109;48.050;11.696;2023-03-21T21:46:59;10.50;;;4.23;;
17967;SDS011;9109;48.050;11.696;2023-03-21T21:50:12;8.80;;;3.57;;
17967;SDS011;9109;48.050;11.696;2023-03-21T21:56:45;6.10;;;3.77;;
17967;SDS011;9109;48.050;11.696;2023-03-21T21:59:48;9.63;;;3.90;;
17967;SDS011;9109;48.050;11.696;2023-03-21T22:02:59;8.67;;;3.90;;
17967;SDS011;9109;48.050;11.696;2023-03-21T22:06:05;7.87;;;4.53;;
17967;SDS011;9109;48.050;11.696;2023-03-21T22:09:18;8.87;;;4.57;;
17967;SDS011;9109;48.050;11.696;2023-03-21T22:12:28;9.23;;;4.33;;
17967;SDS011;9109;48.050;11.696;2023-03-21T22:15:34;11.27;;;5.20;;
17967;SDS011;9109;48.050;11.696;2023-03-21T22:22:28;7.53;;;4.23;;
17967;SDS011;9109;48.050;11.696;2023-03-21T22:25:49;9.53;;;5.23;;
17967;SDS011;9109;48.050;11.696;2023-03-21T22:29:20;9.37;;;5.07;;
17967;SDS011;9109;48.050;11.696;2023-03-21T22:32:28;8.13;;;4.77;;
17967;SDS011;9109;48.050;11.696;2023-03-21T22:35:34;10.47;;;5.23;;
17967;SDS011;9109;48.050;11.696;2023-03-21T22:38:52;11.47;;;5.07;;
17967;SDS011;9109;48.050;11.696;2023-03-21T22:42:27;7.83;;;4.57;;
17967;SDS011;9109;48.050;11.696;2023-03-21T22:45:33;9.00;;;5.57;;
17967;SDS011;9109;48.050;11.696;2023-03-21T22:48:40;11.03;;;5.03;;
17967;SDS011;9109;48.050;11.696;2023-03-21T22:52:23;11.10;;;4.97;;
17967;SDS011;9109;48.050;11.696;2023-03-21T22:55:40;8.53;;;4.60;;
17967;SDS011;9109;48.050;11.696;2023-03-21T22:59:02;8.27;;;4.73;;
17967;SDS011;9109;48.050;11.696;2023-03-21T23:02:33;6.83;;;4.57;;
17967;SDS011;9109;48.050;11.696;2023-03-21T23:06:05;7.53;;;4.53;;
17967;SDS011;9109;48.050;11.696;2023-03-21T23:09:18;7.07;;;4.60;;
17967;SDS011;9109;48.050;11.696;2023-03-21T23:12:29;10.30;;;4.47;;
17967;SDS011;9109;48.050;11.696;2023-03-21T23:15:35;7.20;;;4.87;;
17967;SDS011;9109;48.050;11.696;2023-03-21T23:18:41;8.00;;;4.57;;
17967;SDS011;9109;48.050;11.696;2023-03-21T23:21:44;9.20;;;4.73;;
17967;SDS011;9109;48.050;11.696;2023-03-21T23:24:49;11.33;;;4.30;;
17967;SDS011;9109;48.050;11.696;2023-03-21T23:27:53;9.13;;;4.37;;
17967;SDS011;9109;48.050;11.696;2023-03-21T23:30:58;7.13;;;4.80;;
17967;SDS011;9109;48.050;11.696;2023-03-21T23:34:15;9.37;;;5.13;;
17967;SDS011;9109;48.050;11.696;2023-03-21T23:37:30;12.40;;;5.10;;
17967;SDS011;9109;48.050;11.696;2023-03-21T23:41:30;9.00;;;5.03;;
17967;SDS011;9109;48.050;11.696;2023-03-21T23:44:48;9.73;;;4.43;;
17967;SDS011;9109;48.050;11.696;2023-03-21T23:48:04;13.00;;;5.17;;
17967;SDS011;9109;48.050;11.696;2023-03-21T23:51:12;10.97;;;4.83;;
17967;SDS011;9109;48.050;11.696;2023-03-21T23:54:28;12.77;;;4.80;;
17967;SDS011;9109;48.050;11.696;2023-03-21T23:57:32;14.93;;;5.03;;
